Aérodrome :
LOGIN :

S'inscrire | Disclaimer

   EN    FR    IT 

 










Légende :    VFR   VFR Marginal   IFR   IFR Intensif   IFR Très Intensif
Visi : 
Plafond : 
>= 8 km
>= 3000ft
5 à 8 km
1000 à 3000 ft
1500m à 5 km
500 à 1000 ft
800 à 1500m
200 à 500 ft
< 800m
< 200 ft
Symboles :   Orages  Brouillard  Fortes neiges  Fortes précipitations  Vent > 20 kt
SIGMETs :   Divers  Orages  Givrage  Turbulence  Onde Orograph.  Cendres Volcan.






- Altitude de l'aérodrome : 14 ft
- Code IATA : BRE


EDDW - Bremen Neuenland

DERNIER METAR :
  • 210520Z 06006KT 9999 FEW005 BKN043 03/02 Q1014 TEMPO 4000 BR BKN003

METARs EXPIRÉS :
  • 210450Z 06006KT 9999 SCT005 BKN046 03/02 Q1014 TEMPO 4000 BR BKN003
  • 210420Z AUTO 06006KT //// R09/P2000N // ///////// 03/02 Q1014
  • 210350Z 05006KT 8000 OVC005 02/02 Q1014
  • 210320Z 08003KT 6000 OVC004 02/02 Q1014
  • 210250Z 10004KT 060V140 3500 BR OVC004 02/02 Q1015

TAF COR TAF EDDW
Valide du 21 à 06h jusqu'au 22 à 06h UTC


210534Z 2106/2206 07005KT 6000 SCT003 BKN020
TEMPO 2106/2108 2500 BR BKN003
BECMG 2108/2110 4000 BR OVC006
TEMPO 2110/2119 2000 -DZRA BKN003
BECMG 2116/2118 13005KT
TEMPO 2119/2206 2500 BR
PROB40
TEMPO 2203/2206 6000 SCT004



MET'MAP, la Météo Aéronautique d'un coup d'oeil ! - Copyright ORBIFLY Décembre 2007 - Disclaimer

ORBIFLY MET'MAP TEAM :

Programmation & Développement : Alexandra Zaïnal
Conception & Développement : Baudouin d'Aumeries
Co-Programmation & Développement : Marc-Olivier Méhu
Soutien technique & logistique : Manuel Goepfert

Contact : metmap@orbifly.com




SOURCES & CREDITS :

   NOAA